• Join FlightAware (Why Join?)
  • Login
  • US Flag 
04:47PM EDT


 

Airport Tracker/Info


-or-


 

Live Flight TrackerFlight Track Log ✈ N379PK ✈ 22-Jun-2014 ✈ CYQU - KGEG

Flight Track Log - Related Links

Times and Time Zones

All times are in EDT time to prevent confusion due to time zone crossing. See the N379PK flight status page for this flight to view local times or setup timezone preferences in your user account.

Time Position Orientation Groundspeed Altitude Reporting Facility
EDT Latitude Longitude Course Direction KTS MPH feet Rate Location/Type
09:22PM 55.1667 -118.9833 180° South 140 161 2,600  Level Edmonton Center
09:23PM 55.1500 -119.0333 240° Southwest 170 196 3,900 1,500 Climbing Edmonton Center
09:24PM 55.1000 -119.0167 169° South 170 196 5,700 1,800 Climbing Edmonton Center
09:25PM 55.0500 -119.0000 169° South 170 196 7,500 1,740 Climbing Edmonton Center
09:26PM 54.9833 -119.0000 180° South 170 196 9,200 1,620 Climbing Edmonton Center
09:27PM 54.7928 -119.0167 180° South  Level FlightAware Approximate
09:27PM 54.9333 -118.9833 169° South 170 196 10,800  Level Edmonton Center
09:28PM 54.8833 -118.9667 169° South 180 207 12,300 1,500 Climbing Edmonton Center
09:29PM 54.8500 -118.9500 164° South 180 207 13,900 1,500 Climbing Edmonton Center
09:30PM 54.7833 -118.9667 188° South 180 207 15,400 1,320 Climbing Edmonton Center
09:31PM 54.7333 -118.9500 169° South 180 207 16,600 1,020 Climbing Edmonton Center
09:32PM 54.6833 -118.9333 169° South 200 230 17,500 960 Climbing Edmonton Center
09:33PM 54.6333 -118.9167 169° South 200 230 18,600 1,020 Climbing Edmonton Center
09:34PM 54.5667 -118.9167 180° South 210 242 19,600 900 Climbing Edmonton Center
09:35PM 54.5167 -118.9000 169° South 210 242 20,500 900 Climbing Edmonton Center
09:36PM 54.4500 -118.8667 164° South 200 230 21,500 900 Climbing Edmonton Center
09:37PM 54.4000 -118.8500 169° South 210 242 22,300 780 Climbing Edmonton Center
09:38PM 54.3333 -118.8667 188° South 210 242 23,100 780 Climbing Edmonton Center
09:39PM 54.2833 -118.8500 169° South 210 242 23,900 660 Climbing Edmonton Center
09:40PM 54.2167 -118.8167 164° South 210 242 24,500 540 Climbing Edmonton Center
09:41PM 54.1667 -118.8000 169° South 220 253 25,000 240 Climbing Edmonton Center
09:42PM 54.1000 -118.8000 180° South 230 265 25,000  Level Edmonton Center
09:43PM 54.0333 -118.7833 172° South 240 276 25,000  Level Edmonton Center
09:44PM 53.9500 -118.7500 167° South 250 288 25,000  Level Edmonton Center
09:45PM 53.8833 -118.7667 188° South 250 288 25,000  Level Edmonton Center
09:46PM 53.8167 -118.7333 164° South 260 299 25,000  Level Edmonton Center
09:47PM 53.7500 -118.7167 172° South 260 299 25,000  Level Edmonton Center
09:48PM 53.6833 -118.6833 164° South 260 299 25,000  Level Edmonton Center
09:49PM 53.6000 -118.6833 180° South 260 299 25,000  Level Edmonton Center
09:50PM 53.5333 -118.6667 172° South 260 299 25,000  Level Edmonton Center
09:51PM 53.4667 -118.6667 180° South 260 299 25,000  Level Edmonton Center
09:52PM 53.4000 -118.6500 172° South 260 299 25,000  Level Edmonton Center
09:52PM 53.3500 -118.5667 135° Southeast 260 299 25,000  Level Vancouver Center
09:53PM 53.2833 -118.5500 171° South 260 299 25,000  Level Vancouver Center
09:54PM 53.2167 -118.5500 180° South 260 299 25,000  Level Vancouver Center
09:55PM 53.1500 -118.5333 171° South 260 299 25,000  Level Vancouver Center
09:56PM 53.0667 -118.5167 173° South 260 299 25,000  Level Vancouver Center
09:57PM 53.0000 -118.5000 171° South 260 299 25,000  Level Vancouver Center
09:58PM 52.9333 -118.5000 180° South 260 299 25,000  Level Vancouver Center
09:59PM 52.8667 -118.4833 171° South 260 299 25,000  Level Vancouver Center
10:00PM 52.7667 -118.4667 174° South 260 299 25,000  Level Vancouver Center
10:01PM 52.7000 -118.4500 171° South 260 299 25,000 -60 Level Vancouver Center
10:02PM 52.6333 -118.4333 171° South 260 299 24,900 -60 Descending Vancouver Center
10:03PM 52.5500 -118.4333 180° South 260 299 24,900  Level Vancouver Center
10:05PM 52.4333 -118.4667 190° South 260 299 24,900  Level Edmonton Center
10:06PM 52.3833 -118.4500 168° South 260 299 24,900  Level Edmonton Center
10:07PM 52.3000 -118.4667 187° South 260 299 24,900  Level Edmonton Center
10:08PM 52.2167 -118.4333 166° South 260 299 24,900  Level Edmonton Center
10:09PM 52.1500 -118.4167 171° South 260 299 24,900  Level Edmonton Center
10:10PM 52.0833 -118.4167 180° South 270 311 24,900  Level Edmonton Center
10:10PM 52.0500 -118.3333 123° Southeast 270 311 24,900  Level Vancouver Center
10:11PM 51.9833 -118.3167 171° South 270 311 24,900  Level Vancouver Center
10:12PM 51.9000 -118.3000 173° South 270 311 24,900  Level Vancouver Center
10:13PM 51.8333 -118.2833 171° South 270 311 24,900  Level Vancouver Center
10:14PM 51.7500 -118.3000 187° South 270 311 24,900  Level Vancouver Center
10:15PM 51.6833 -118.2667 163° South 270 311 24,900  Level Vancouver Center
10:16PM 51.6000 -118.2500 173° South 270 311 24,900  Level Vancouver Center
10:17PM 51.5333 -118.2333 171° South 270 311 24,900  Level Vancouver Center
10:18PM 51.4500 -118.2167 173° South 270 311 24,900  Level Vancouver Center
10:19PM 51.3667 -118.2000 173° South 270 311 24,900  Level Vancouver Center
10:20PM 51.2833 -118.2167 187° South 270 311 24,900  Level Vancouver Center
10:21PM 51.2167 -118.2000 171° South 280 322 24,900  Level Vancouver Center
10:22PM 51.1333 -118.1833 173° South 280 322 24,900  Level Vancouver Center
10:23PM 51.0667 -118.1667 171° South 270 311 24,900  Level Vancouver Center
10:24PM 50.9833 -118.1500 173° South 270 311 24,900  Level Vancouver Center
10:25PM 50.9167 -118.1333 171° South 270 311 24,900  Level Vancouver Center
10:26PM 50.8333 -118.1333 180° South 270 311 24,900  Level Vancouver Center
10:27PM 50.7667 -118.1167 171° South 270 311 24,900  Level Vancouver Center
10:28PM 50.6833 -118.1000 173° South 280 322 24,900  Level Vancouver Center
10:29PM 50.6167 -118.0833 171° South 280 322 24,900  Level Vancouver Center
10:30PM 50.5333 -118.0667 173° South 280 322 24,900  Level Vancouver Center
10:31PM 50.4667 -118.0500 171° South 280 322 24,900  Level Vancouver Center
10:32PM 50.3833 -118.0333 173° South 280 322 24,900  Level Vancouver Center
10:33PM 50.3000 -118.0500 187° South 280 322 24,900  Level Vancouver Center
10:34PM 50.2333 -118.0333 171° South 280 322 24,900  Level Vancouver Center
10:35PM 50.1500 -118.0167 173° South 280 322 24,900  Level Vancouver Center
10:36PM 50.0833 -118.0000 171° South 280 322 24,900  Level Vancouver Center
10:37PM 50.0000 -117.9833 173° South 280 322 24,900  Level Vancouver Center
10:38PM 49.9167 -117.9667 173° South 280 322 24,900  Level Vancouver Center
10:39PM 49.8333 -117.9667 180° South 280 322 24,900  Level Vancouver Center
10:40PM 49.7667 -117.9500 171° South 270 311 24,900  Level Vancouver Center
10:41PM 49.6833 -117.9333 173° South 280 322 24,900  Level Vancouver Center
10:42PM 49.6167 -117.9167 171° South 270 311 24,900  Level Vancouver Center
10:43PM 49.5333 -117.9000 173° South 270 311 24,900  Level Vancouver Center
10:44PM 49.4667 -117.8833 171° South 270 311 24,900  Level Vancouver Center
10:45PM 49.3833 -117.9000 187° South 270 311 24,900  Level Vancouver Center
10:46PM 49.3167 -117.8833 171° South 270 311 24,900  Level Vancouver Center
10:47PM 49.2333 -117.8667 173° South 270 311 24,900  Level Vancouver Center
10:48PM 49.1667 -117.8500 171° South 270 311 24,900  Level Vancouver Center
10:49PM 49.1000 -117.8333 171° South 270 311 24,900  Level Vancouver Center
10:50PM 49.0167 -117.8333 180° South 270 311 24,900  Level Vancouver Center
10:51PM 48.9500 -117.8167 171° South 270 311 24,900 -300 Level Vancouver Center
10:52PM 48.8667 -117.8000 173° South 270 311 24,400 -480 Descending Vancouver Center
10:53PM 48.8306 -117.8178 198° South 275 316 24,100 -420 Descending Seattle Center
10:54PM 48.7525 -117.8056 174° South 281 323 23,700 -900 Descending Seattle Center
10:55PM 48.6714 -117.7933 174° South 285 328 22,300 -1,320 Descending Seattle Center
10:56PM 48.5850 -117.7786 174° South 306 352 21,100 -1,380 Descending Seattle Center
10:57PM 48.4997 -117.7672 175° South 307 353 19,600 -1,380 Descending Seattle Center
10:58PM 48.4144 -117.7553 175° South 307 353 18,300 -1,380 Descending Seattle Center
10:59PM 48.3189 -117.7411 174° South 307 353 16,900 -1,380 Descending Seattle Center
11:00PM 48.2342 -117.7086 166° South 298 343 15,600 -1,380 Descending Seattle Center
11:01PM 48.1586 -117.6708 162° South 288 331 14,200 -1,560 Descending Seattle Center
11:02PM 48.0844 -117.6328 161° South 288 331 12,500 -1,680 Descending Seattle Center
11:03PM 48.0094 -117.5958 162° South 285 328 10,800 -1,680 Descending Seattle Center
11:04PM 47.9389 -117.5603 161° South 273 314 9,100 -1,800 Descending Seattle Center
11:05PM 47.8622 -117.5225 162° South 272 313 7,200 -1,380 Descending Seattle Center
11:06PM 47.7956 -117.4900 162° South 257 296 6,300 -1,380 Descending Seattle Center
11:07PM 47.7303 -117.4578 162° South 251 289 4,500 -1,320 Descending Seattle Center
11:08PM 47.6733 -117.4539 177° South 218 251 3,700 -840 Descending Seattle Center
11:09PM 47.6436 -117.5003 226° Southwest 156 180 2,800 -720 Descending Seattle Center
11:10PM 47.6261 -117.5258 225° Southwest 109 125 2,300 -300 Descending Seattle Center
11:11PM 47.6186 -117.5394 231° Southwest 56 64 2,300  Level Seattle Center